createdAt,value
2022-09-02T00:00:58.359Z,2.20
2022-09-02T00:03:25.012Z,2.30
2022-09-02T00:05:51.686Z,2.22
2022-09-02T00:08:18.182Z,2.05
2022-09-02T00:10:45.555Z,2.20
2022-09-02T00:13:15.842Z,2.30
2022-09-02T00:15:43.670Z,2.20
2022-09-02T00:18:14.156Z,2.20
2022-09-02T00:20:44.153Z,2.15
2022-09-02T00:23:10.692Z,2.17
2022-09-02T00:25:38.702Z,2.38
2022-09-02T00:28:06.671Z,2.20
2022-09-02T00:30:34.776Z,2.20
2022-09-02T00:33:01.644Z,2.75
2022-09-02T00:35:28.402Z,2.63
2022-09-02T00:37:54.992Z,2.25
2022-09-02T00:40:21.653Z,2.70
2022-09-02T00:42:48.093Z,2.60
2022-09-02T00:45:14.623Z,2.58
2022-09-02T00:47:41.349Z,2.47
2022-09-02T00:50:14.836Z,2.50
2022-09-02T00:52:46.031Z,2.65
2022-09-02T00:55:19.274Z,2.60
2022-09-02T00:57:52.801Z,2.83
2022-09-02T01:00:24.618Z,3.00
2022-09-02T01:02:58.251Z,3.08
2022-09-02T01:05:27.768Z,3.03
2022-09-02T01:07:56.108Z,3.08
2022-09-02T01:10:31.672Z,3.10
2022-09-02T01:13:00.890Z,3.43
2022-09-02T01:15:27.910Z,3.67
2022-09-02T01:17:54.782Z,4.03
2022-09-02T01:20:25.637Z,4.03
2022-09-02T01:22:52.913Z,3.92
2022-09-02T01:25:27.473Z,4.00
2022-09-02T01:27:58.227Z,4.03
2022-09-02T01:30:26.095Z,4.10
2022-09-02T01:32:52.861Z,4.35
2022-09-02T01:35:19.594Z,4.60
2022-09-02T01:37:53.586Z,4.50
2022-09-02T01:40:24.060Z,5.25
2022-09-02T01:42:56.069Z,5.57
2022-09-02T01:45:22.925Z,5.45
2022-09-02T01:47:49.350Z,5.50
2022-09-02T01:50:15.995Z,5.40
2022-09-02T01:52:42.443Z,4.97
2022-09-02T01:55:09.493Z,5.20
2022-09-02T01:57:35.939Z,4.53
2022-09-02T02:00:03.591Z,4.78
2022-09-02T02:02:30.126Z,4.40
2022-09-02T02:04:56.539Z,4.38
2022-09-02T02:07:23.177Z,4.20
2022-09-02T02:09:50.103Z,4.25
2022-09-02T02:12:17.060Z,4.18
2022-09-02T02:14:43.541Z,4.10
2022-09-02T02:17:10.000Z,4.05
2022-09-02T02:19:36.482Z,4.15
2022-09-02T02:22:03.350Z,4.10
2022-09-02T02:24:29.821Z,4.10
2022-09-02T02:26:56.280Z,4.13
2022-09-02T02:29:22.907Z,4.00
2022-09-02T02:31:50.184Z,3.90
2022-09-02T02:34:16.670Z,4.00
2022-09-02T02:36:43.442Z,4.00
2022-09-02T02:39:10.575Z,3.60
2022-09-02T02:41:37.764Z,4.00
2022-09-02T02:44:04.710Z,4.18
2022-09-02T02:46:31.302Z,4.30
2022-09-02T02:49:01.551Z,4.00
2022-09-02T02:51:28.135Z,3.83
2022-09-02T02:53:58.596Z,4.00
2022-09-02T02:56:25.908Z,4.25
2022-09-02T02:58:52.363Z,4.10
2022-09-02T03:01:18.812Z,4.32
2022-09-02T03:03:45.497Z,4.30
2022-09-02T03:06:11.947Z,4.60
2022-09-02T03:08:38.400Z,4.40
2022-09-02T03:11:05.141Z,4.38
2022-09-02T03:13:33.773Z,4.90
2022-09-02T03:16:00.703Z,4.93
2022-09-02T03:18:27.549Z,4.57
2022-09-02T03:20:53.996Z,4.38
2022-09-02T03:23:20.558Z,4.38
2022-09-02T03:25:47.166Z,4.82
2022-09-02T03:28:13.801Z,4.70
2022-09-02T03:30:42.085Z,5.07
2022-09-02T03:33:08.973Z,5.20
2022-09-02T03:35:40.004Z,5.15
2022-09-02T03:38:07.283Z,4.63
2022-09-02T03:40:33.876Z,4.77
2022-09-02T03:43:00.821Z,4.70
2022-09-02T03:45:28.545Z,4.97
2022-09-02T03:47:55.835Z,4.55
2022-09-02T03:50:29.042Z,5.00
2022-09-02T03:52:56.709Z,4.70
2022-09-02T03:55:23.301Z,4.90
2022-09-02T03:57:49.841Z,4.97
2022-09-02T04:00:18.834Z,4.50
2022-09-02T04:02:49.995Z,4.90
2022-09-02T04:05:17.536Z,4.80
2022-09-02T04:07:44.187Z,4.97
2022-09-02T04:10:14.859Z,5.05
2022-09-02T04:12:41.641Z,5.00
2022-09-02T04:15:10.659Z,4.95
2022-09-02T04:17:39.339Z,4.80
2022-09-02T04:20:08.242Z,4.90
2022-09-02T04:22:35.149Z,5.57
2022-09-02T04:25:01.833Z,5.30
2022-09-02T04:27:28.397Z,5.38
2022-09-02T04:29:54.968Z,5.50
2022-09-02T04:32:22.041Z,5.70
2022-09-02T04:34:49.879Z,6.18
2022-09-02T04:37:16.540Z,5.63
2022-09-02T04:39:43.026Z,5.60
2022-09-02T04:42:09.503Z,5.97
2022-09-02T04:44:35.970Z,5.85
2022-09-02T04:47:02.546Z,6.32
2022-09-02T04:49:29.467Z,6.03
2022-09-02T04:51:56.034Z,6.40
2022-09-02T04:54:22.487Z,5.90
2022-09-02T04:56:48.939Z,6.10
2022-09-02T04:59:15.453Z,6.00
2022-09-02T05:01:42.019Z,6.15
2022-09-02T05:04:09.495Z,6.50
2022-09-02T05:06:41.935Z,6.50
2022-09-02T05:09:10.414Z,6.22
2022-09-02T05:11:36.913Z,6.55
2022-09-02T05:14:05.686Z,6.15
2022-09-02T05:16:38.065Z,6.60
2022-09-02T05:19:07.601Z,6.50
2022-09-02T05:21:34.209Z,6.68
2022-09-02T05:24:00.854Z,6.70
2022-09-02T05:26:27.404Z,6.75
2022-09-02T05:28:53.869Z,6.63
2022-09-02T05:31:21.772Z,6.87
2022-09-02T05:33:48.602Z,6.50
2022-09-02T05:36:19.070Z,6.90
2022-09-02T05:38:46.218Z,7.00
2022-09-02T05:41:15.790Z,6.80
2022-09-02T05:43:43.476Z,6.63
2022-09-02T05:46:12.496Z,7.20
2022-09-02T05:48:39.518Z,7.30
2022-09-02T05:51:07.280Z,7.30
2022-09-02T05:53:33.731Z,6.65
2022-09-02T05:56:04.297Z,7.20
2022-09-02T05:58:30.791Z,6.93
2022-09-02T06:00:57.272Z,7.13
2022-09-02T06:03:23.944Z,7.22
2022-09-02T06:06:01.706Z,8.00
2022-09-02T06:08:31.323Z,7.23
2022-09-02T06:10:58.274Z,7.35
2022-09-02T06:13:24.976Z,7.80
2022-09-02T06:15:52.039Z,7.60
2022-09-02T06:18:18.885Z,7.90
2022-09-02T06:20:47.756Z,7.93
2022-09-02T06:23:16.093Z,7.40
2022-09-02T06:25:45.565Z,8.02
2022-09-02T06:28:13.223Z,7.95
2022-09-02T06:30:42.180Z,7.60
2022-09-02T06:33:09.087Z,7.73
2022-09-02T06:35:42.916Z,8.13
2022-09-02T06:38:10.486Z,7.88
2022-09-02T06:40:45.523Z,8.00
2022-09-02T06:43:12.053Z,8.23
2022-09-02T06:45:43.128Z,8.17
2022-09-02T06:48:10.480Z,8.10
2022-09-02T06:50:41.943Z,8.32
2022-09-02T06:53:08.761Z,7.50
2022-09-02T06:55:36.803Z,8.13
2022-09-02T06:58:04.191Z,8.10
2022-09-02T07:00:30.727Z,8.10
2022-09-02T07:02:58.589Z,8.50
2022-09-02T07:05:25.029Z,7.88
2022-09-02T07:07:51.485Z,8.35
2022-09-02T07:10:17.946Z,7.77
2022-09-02T07:12:44.646Z,7.68
2022-09-02T07:15:11.544Z,7.60
2022-09-02T07:17:38.490Z,7.53
2022-09-02T07:20:06.395Z,7.72
2022-09-02T07:22:32.937Z,7.73
2022-09-02T07:24:59.515Z,7.47
2022-09-02T07:27:26.229Z,7.55
2022-09-02T07:29:52.689Z,7.70
2022-09-02T07:32:19.205Z,8.07
2022-09-02T07:34:45.662Z,7.20
2022-09-02T07:37:12.219Z,7.68
2022-09-02T07:39:38.855Z,7.00
2022-09-02T07:42:05.756Z,7.47
2022-09-02T07:44:34.232Z,7.13
2022-09-02T07:47:00.688Z,7.20
2022-09-02T07:49:27.991Z,7.10
2022-09-02T07:51:54.863Z,6.72
2022-09-02T07:54:24.758Z,6.75
2022-09-02T07:56:51.580Z,7.35
2022-09-02T07:59:19.410Z,6.00
2022-09-02T08:01:45.948Z,6.60
2022-09-02T08:04:13.140Z,6.72
2022-09-02T08:06:39.729Z,6.95
2022-09-02T08:09:09.162Z,6.57
2022-09-02T08:11:35.678Z,6.60
2022-09-02T08:14:02.192Z,6.50
2022-09-02T08:16:28.970Z,6.70
2022-09-02T08:18:55.967Z,6.60
2022-09-02T08:21:22.516Z,6.53
2022-09-02T08:23:48.949Z,6.30
2022-09-02T08:26:15.396Z,6.50
2022-09-02T08:28:41.852Z,5.75
2022-09-02T08:31:08.284Z,6.07
2022-09-02T08:33:35.366Z,6.07
2022-09-02T08:36:04.086Z,6.47
2022-09-02T08:38:30.804Z,5.63
2022-09-02T08:40:57.411Z,5.53
2022-09-02T08:43:49.098Z,5.30
2022-09-02T08:46:18.388Z,5.80
2022-09-02T08:49:00.192Z,6.37
2022-09-02T08:51:37.818Z,6.50
2022-09-02T08:54:09.711Z,7.07
2022-09-02T08:56:36.512Z,6.18
2022-09-02T08:59:03.711Z,6.90
2022-09-02T09:01:36.279Z,6.70
2022-09-02T09:04:24.607Z,6.53
2022-09-02T09:07:48.707Z,6.20
2022-09-02T09:10:21.075Z,6.68
2022-09-02T09:12:53.217Z,6.90
2022-09-02T09:15:33.570Z,6.00
2022-09-02T09:18:04.068Z,6.65
2022-09-02T09:20:35.056Z,6.63
2022-09-02T09:23:12.199Z,6.70
2022-09-02T09:25:38.775Z,6.93
2022-09-02T09:28:05.235Z,6.40
2022-09-02T09:30:32.083Z,6.05
2022-09-02T09:33:00.177Z,6.57
2022-09-02T09:35:46.396Z,6.07
2022-09-02T09:38:14.113Z,7.35
2022-09-02T09:40:40.745Z,5.90
2022-09-02T09:43:14.730Z,6.20
2022-09-02T09:45:47.571Z,6.78
2022-09-02T09:48:16.912Z,6.40
2022-09-02T09:50:48.212Z,6.53
2022-09-02T09:53:18.673Z,6.10
2022-09-02T09:56:03.057Z,5.80
2022-09-02T09:58:34.275Z,5.85
2022-09-02T10:01:11.455Z,5.63
2022-09-02T10:03:42.516Z,5.32
2022-09-02T10:06:44.320Z,5.50
2022-09-02T10:09:19.707Z,5.18
2022-09-02T10:11:56.886Z,6.10
2022-09-02T10:14:26.558Z,5.45
2022-09-02T10:17:32.822Z,5.72
2022-09-02T10:20:26.308Z,5.60
2022-09-02T10:23:21.444Z,5.45
2022-09-02T10:26:12.761Z,5.05
2022-09-02T10:29:03.971Z,5.25
2022-09-02T10:31:45.601Z,4.72
2022-09-02T10:34:41.853Z,5.13
2022-09-02T10:37:23.134Z,4.75
2022-09-02T10:40:08.114Z,4.60
2022-09-02T10:42:59.283Z,4.65
2022-09-02T10:45:33.985Z,3.95
2022-09-02T10:48:03.514Z,4.43
2022-09-02T10:50:51.858Z,4.65
2022-09-02T10:53:40.022Z,4.40
2022-09-02T10:56:14.088Z,4.40
2022-09-02T10:59:25.929Z,4.10
2022-09-02T11:02:03.120Z,3.87
2022-09-02T11:04:43.350Z,3.75
2022-09-02T11:07:14.970Z,3.67
2022-09-02T11:10:07.185Z,3.97
2022-09-02T11:12:38.533Z,3.70
2022-09-02T11:15:21.622Z,4.10
2022-09-02T11:18:02.461Z,4.25
2022-09-02T11:20:41.792Z,3.70
2022-09-02T11:23:30.740Z,3.80
2022-09-02T11:26:07.497Z,3.70
2022-09-02T11:29:14.379Z,3.60
2022-09-02T11:31:58.352Z,4.00
2022-09-02T11:34:30.609Z,3.70
2022-09-02T11:36:57.098Z,3.90
2022-09-02T11:39:53.965Z,3.97
2022-09-02T11:42:52.510Z,4.30
2022-09-02T11:45:52.916Z,3.80
2022-09-02T11:48:50.361Z,3.42
2022-09-02T11:51:22.704Z,3.67
2022-09-02T11:53:53.374Z,3.95
2022-09-02T11:56:29.283Z,3.90
2022-09-02T11:58:56.113Z,3.80
2022-09-02T12:01:26.677Z,3.80
2022-09-02T12:04:56.205Z,3.60
2022-09-02T12:07:14.030Z,3.83
2022-09-02T12:09:55.376Z,3.70
2022-09-02T12:12:37.062Z,3.63
2022-09-02T12:15:03.819Z,3.75
2022-09-02T12:17:56.479Z,3.15
2022-09-02T12:20:38.091Z,3.20
2022-09-02T12:23:06.649Z,3.30
2022-09-02T12:25:33.086Z,2.90
2022-09-02T12:28:26.554Z,3.22
2022-09-02T12:30:56.446Z,3.20
2022-09-02T12:33:29.670Z,3.40
2022-09-02T12:35:56.694Z,3.13
2022-09-02T12:38:35.455Z,3.10
2022-09-02T12:41:04.637Z,3.35
2022-09-02T12:43:49.186Z,3.30
2022-09-02T12:46:28.170Z,3.40
2022-09-02T12:49:10.493Z,3.17
2022-09-02T12:51:58.841Z,3.25
2022-09-02T12:54:41.885Z,3.22
2022-09-02T12:57:09.733Z,3.30
2022-09-02T12:59:39.552Z,3.47
2022-09-02T13:02:41.576Z,3.40
2022-09-02T13:05:21.777Z,3.40
2022-09-02T13:08:12.942Z,3.20
2022-09-02T13:11:01.183Z,3.22
2022-09-02T13:13:49.104Z,3.30
2022-09-02T13:16:22.598Z,3.10
2022-09-02T13:19:04.272Z,3.40
2022-09-02T13:21:30.682Z,3.60
2022-09-02T13:24:28.153Z,3.00
2022-09-02T13:27:13.776Z,3.30
2022-09-02T13:30:05.042Z,3.40
2022-09-02T13:32:33.342Z,3.30
2022-09-02T13:35:16.326Z,3.30
2022-09-02T13:37:57.341Z,3.40
2022-09-02T13:40:27.817Z,3.60
2022-09-02T13:42:59.713Z,3.33
2022-09-02T13:45:28.132Z,3.60
2022-09-02T13:48:00.603Z,3.58
2022-09-02T13:50:31.534Z,3.40
2022-09-02T13:55:53.414Z,3.17
2022-09-02T13:58:28.859Z,3.33
2022-09-02T14:01:01.755Z,3.50
2022-09-02T14:03:30.800Z,3.28
2022-09-02T14:05:57.716Z,3.30
2022-09-02T14:08:26.613Z,3.40
2022-09-02T14:10:54.138Z,3.28
2022-09-02T14:13:22.544Z,3.60
2022-09-02T14:15:49.073Z,3.38
2022-09-02T14:18:18.352Z,3.38
2022-09-02T14:20:56.911Z,3.20
2022-09-02T14:23:24.267Z,3.10
2022-09-02T14:25:56.085Z,3.17
2022-09-02T14:28:34.479Z,3.42
2022-09-02T14:31:00.981Z,3.25
2022-09-02T14:33:45.866Z,3.30
2022-09-02T14:36:30.717Z,3.38
2022-09-02T14:39:09.501Z,3.50
2022-09-02T14:41:36.499Z,3.17
2022-09-02T14:44:35.300Z,3.30
2022-09-02T14:47:05.501Z,3.30
2022-09-02T14:49:45.222Z,3.20
2022-09-02T14:52:25.403Z,3.30
2022-09-02T14:54:54.303Z,3.30
2022-09-02T14:57:32.953Z,3.05
2022-09-02T15:00:10.532Z,3.23
2022-09-02T15:02:40.014Z,3.20
2022-09-02T15:05:09.375Z,3.13
2022-09-02T15:07:35.838Z,2.92
2022-09-02T15:10:02.348Z,3.33
2022-09-02T15:12:32.274Z,3.03
2022-09-02T15:14:59.631Z,3.20
2022-09-02T15:17:27.013Z,3.10
2022-09-02T15:19:53.431Z,3.10
2022-09-02T15:22:20.241Z,3.17
2022-09-02T15:24:46.710Z,2.90
2022-09-02T15:27:13.688Z,3.20
2022-09-02T15:29:40.244Z,3.05
2022-09-02T15:32:06.982Z,3.10
2022-09-02T15:34:33.925Z,3.40
2022-09-02T15:37:03.857Z,3.03
2022-09-02T15:39:30.356Z,2.90
2022-09-02T15:41:57.180Z,3.20
2022-09-02T15:44:24.987Z,2.90
2022-09-02T15:46:52.751Z,3.00
2022-09-02T15:49:19.744Z,3.00
2022-09-02T15:51:46.956Z,3.22
2022-09-02T15:54:16.632Z,3.05
2022-09-02T15:56:45.656Z,3.20
2022-09-02T15:59:21.200Z,3.00
2022-09-02T16:01:50.574Z,3.10
2022-09-02T16:04:17.442Z,2.80
2022-09-02T16:06:46.532Z,3.25
2022-09-02T16:09:14.836Z,3.00
2022-09-02T16:11:46.787Z,3.15
2022-09-02T16:14:14.319Z,3.10
2022-09-02T16:16:42.573Z,3.00
2022-09-02T16:19:09.809Z,3.17
2022-09-02T16:21:36.538Z,3.30
2022-09-02T16:24:03.217Z,3.22
2022-09-02T16:26:32.245Z,3.20
2022-09-02T16:29:01.409Z,3.30
2022-09-02T16:31:29.991Z,3.20
2022-09-02T16:34:08.406Z,3.30
2022-09-02T16:36:38.143Z,3.10
2022-09-02T16:39:05.785Z,3.03
2022-09-02T16:41:34.816Z,3.25
2022-09-02T16:44:13.030Z,2.97
2022-09-02T16:46:39.885Z,3.05
2022-09-02T16:49:07.438Z,3.05
2022-09-02T16:51:34.117Z,3.20
2022-09-02T16:54:03.612Z,3.10
2022-09-02T16:56:30.722Z,3.50
2022-09-02T16:59:01.817Z,3.33
2022-09-02T17:01:32.402Z,3.20
2022-09-02T17:03:59.840Z,3.10
2022-09-02T17:06:26.809Z,3.10
2022-09-02T17:08:53.355Z,3.20
2022-09-02T17:11:21.859Z,3.10
2022-09-02T17:13:54.120Z,3.30
2022-09-02T17:16:23.732Z,3.20
2022-09-02T17:18:50.498Z,3.22
2022-09-02T17:21:25.871Z,3.40
2022-09-02T17:23:53.500Z,3.25
2022-09-02T17:26:22.597Z,3.25
2022-09-02T17:28:49.312Z,3.50
2022-09-02T17:31:24.735Z,3.55
2022-09-02T17:33:52.688Z,3.63
2022-09-02T17:36:19.636Z,3.63
2022-09-02T17:38:46.482Z,3.40
2022-09-02T17:41:13.598Z,3.40
2022-09-02T17:43:40.047Z,3.30
2022-09-02T17:46:08.161Z,3.70
2022-09-02T17:48:45.118Z,3.20
2022-09-02T17:51:21.527Z,3.60
2022-09-02T17:53:48.680Z,3.60
2022-09-02T17:56:33.573Z,3.60
2022-09-02T17:59:18.480Z,3.55
2022-09-02T18:02:22.732Z,3.42
2022-09-02T18:04:57.521Z,3.50
2022-09-02T18:07:42.268Z,3.40
2022-09-02T18:10:12.267Z,3.70
2022-09-02T18:12:39.272Z,3.58
2022-09-02T18:15:06.972Z,3.78
2022-09-02T18:17:40.111Z,3.78
2022-09-02T18:20:25.413Z,3.50
2022-09-02T18:22:56.477Z,3.83
2022-09-02T18:25:37.990Z,3.72
2022-09-02T18:28:42.096Z,4.40
2022-09-02T18:31:20.815Z,3.75
2022-09-02T18:33:47.266Z,3.40
2022-09-02T18:36:33.545Z,3.53
2022-09-02T18:39:24.309Z,3.58
2022-09-02T18:42:06.746Z,3.85
2022-09-02T18:44:57.982Z,4.10
2022-09-02T18:47:28.247Z,3.70
2022-09-02T18:49:58.434Z,3.80
2022-09-02T18:52:26.279Z,3.75
2022-09-02T18:55:06.287Z,4.47
2022-09-02T18:57:40.915Z,12.23
2022-09-02T19:00:09.962Z,8.90
2022-09-02T19:02:50.915Z,5.22
2022-09-02T19:05:21.030Z,6.40
2022-09-02T19:08:01.775Z,4.20
2022-09-02T19:10:28.280Z,4.10
2022-09-02T19:12:57.152Z,3.93
2022-09-02T19:15:25.095Z,3.90
2022-09-02T19:17:51.800Z,3.90
2022-09-02T19:20:18.401Z,4.40
2022-09-02T19:22:49.967Z,3.95
2022-09-02T19:25:21.542Z,3.50
2022-09-02T19:27:50.676Z,3.20
2022-09-02T19:30:19.340Z,3.50
2022-09-02T19:32:47.893Z,3.67
2022-09-02T19:35:20.146Z,3.20
2022-09-02T19:37:51.164Z,3.30
2022-09-02T19:40:21.618Z,3.40
2022-09-02T19:42:48.081Z,3.20
2022-09-02T19:45:16.598Z,3.35
2022-09-02T19:48:06.040Z,3.40
2022-09-02T19:50:30.282Z,3.30
2022-09-02T19:52:56.772Z,3.40
2022-09-02T19:55:23.455Z,3.30
2022-09-02T19:57:50.628Z,3.50
2022-09-02T20:00:17.909Z,3.40
2022-09-02T20:02:44.399Z,3.20
2022-09-02T20:05:13.714Z,3.20
2022-09-02T20:07:40.511Z,3.50
2022-09-02T20:10:07.980Z,3.30
2022-09-02T20:12:35.581Z,3.58
2022-09-02T20:15:03.148Z,3.20
2022-09-02T20:17:30.021Z,3.40
2022-09-02T20:19:57.276Z,3.28
2022-09-02T20:22:23.816Z,3.28
2022-09-02T20:24:50.318Z,3.75
2022-09-02T20:27:19.380Z,3.50
2022-09-02T20:30:10.941Z,3.67
2022-09-02T20:32:37.341Z,3.50
2022-09-02T20:35:28.845Z,3.67
2022-09-02T20:38:32.661Z,3.50
2022-09-02T20:41:17.711Z,3.50
2022-09-02T20:44:14.817Z,3.85
2022-09-02T20:46:53.845Z,3.83
2022-09-02T20:49:41.495Z,3.75
2022-09-02T20:52:26.516Z,3.63
2022-09-02T20:55:17.886Z,3.63
2022-09-02T20:58:17.680Z,3.50
2022-09-02T21:01:08.779Z,4.10
2022-09-02T21:03:50.163Z,3.95
2022-09-02T21:06:18.875Z,4.10
2022-09-02T21:09:07.236Z,4.03
2022-09-02T21:11:45.152Z,4.10
2022-09-02T21:14:17.089Z,4.22
2022-09-02T21:16:54.183Z,3.80
2022-09-02T21:19:29.188Z,3.97
2022-09-02T21:22:03.353Z,3.90
2022-09-02T21:24:38.562Z,3.80
2022-09-02T21:27:12.849Z,4.07
2022-09-02T21:29:44.938Z,3.90
2022-09-02T21:32:42.104Z,4.05
2022-09-02T21:35:23.117Z,4.30
2022-09-02T21:37:53.963Z,4.32
2022-09-02T21:40:21.544Z,4.50
2022-09-02T21:43:06.927Z,4.18
2022-09-02T21:45:43.093Z,4.35
2022-09-02T21:48:22.585Z,4.10
2022-09-02T21:50:59.515Z,4.25
2022-09-02T21:53:43.316Z,4.03
2022-09-02T21:56:12.849Z,4.30
2022-09-02T21:59:01.234Z,4.50
2022-09-02T22:01:43.963Z,3.90
2022-09-02T22:04:24.142Z,4.35
2022-09-02T22:07:00.083Z,4.20
2022-09-02T22:09:31.808Z,3.92
2022-09-02T22:12:13.788Z,4.10
2022-09-02T22:14:42.990Z,4.40
2022-09-02T22:17:24.080Z,4.20
2022-09-02T22:19:54.701Z,4.28
2022-09-02T22:22:22.117Z,4.20
2022-09-02T22:24:48.914Z,4.50
2022-09-02T22:27:29.476Z,4.50
2022-09-02T22:30:05.067Z,4.40
2022-09-02T22:32:38.595Z,4.38
2022-09-02T22:35:08.578Z,4.40
2022-09-02T22:38:14.199Z,4.60
2022-09-02T22:40:51.447Z,4.40
2022-09-02T22:43:23.611Z,4.40
2022-09-02T22:46:03.832Z,4.25
2022-09-02T22:48:39.099Z,4.50
2022-09-02T22:51:19.004Z,4.65
2022-09-02T22:53:46.449Z,4.57
2022-09-02T22:56:13.596Z,4.53
2022-09-02T22:58:51.434Z,4.40
2022-09-02T23:01:36.549Z,4.85
2022-09-02T23:04:28.083Z,4.50
2022-09-02T23:06:54.768Z,4.40
2022-09-02T23:09:21.453Z,4.53
2022-09-02T23:12:03.770Z,4.40
2022-09-02T23:14:36.367Z,4.60
2022-09-02T23:17:20.298Z,4.60
2022-09-02T23:20:08.248Z,4.37
2022-09-02T23:23:13.790Z,4.65
2022-09-02T23:25:54.267Z,4.40
2022-09-02T23:28:23.589Z,4.55
2022-09-02T23:31:19.801Z,4.70
2022-09-02T23:34:17.122Z,4.83
2022-09-02T23:37:03.540Z,4.70
2022-09-02T23:39:45.322Z,5.00
2022-09-02T23:42:12.903Z,5.18
2022-09-02T23:44:39.333Z,4.60
2022-09-02T23:47:22.096Z,5.10
2022-09-02T23:49:54.816Z,5.35
2022-09-02T23:52:31.351Z,4.78
2022-09-02T23:55:16.495Z,4.78
2022-09-02T23:57:42.872Z,5.10
